Time;durP1;ratioP1;P1;durP2;ratioP2;P2;SDS_P1;SDS_P2;PMS_P1;PMS_P2;Temp;Humidity;BMP_temperature;BMP_pressure;BME280_temperature;BME280_humidity;BME280_pressure;Samples;Min_cycle;Max_cycle;Signal;HPM_P1;HPM_P2
2022/03/11 00:00:46;;;;;;;8.77;4.53;;;;;;;;;;5043863;28;20642;-86
2022/03/11 00:03:49;;;;;;;5.70;4.17;;;;;;;;;;5043779;28;20617;-83
2022/03/11 00:06:54;;;;;;;7.73;4.13;;;;;;;;;;5044303;28;21100;-83
2022/03/11 00:09:58;;;;;;;6.97;3.90;;;;;;;;;;5044351;28;20531;-83
2022/03/11 00:13:02;;;;;;;7.47;4.17;;;;;;;;;;5033002;28;20621;-83
2022/03/11 00:16:06;;;;;;;7.57;4.17;;;;;;;;;;5055522;28;20554;-82
2022/03/11 00:19:10;;;;;;;5.80;3.80;;;;;;;;;;5044051;28;20594;-83
2022/03/11 00:22:14;;;;;;;6.73;3.97;;;;;;;;;;5043730;28;20622;-83
2022/03/11 00:25:19;;;;;;;9.03;4.20;;;;;;;;;;5044023;28;20536;-83
2022/03/11 00:28:24;;;;;;;5.47;3.30;;;;;;;;;;5032466;28;20547;-83
2022/03/11 00:31:28;;;;;;;6.20;3.53;;;;;;;;;;5055084;28;20594;-84
2022/03/11 00:34:32;;;;;;;9.00;3.60;;;;;;;;;;5032535;28;20547;-83
2022/03/11 00:37:38;;;;;;;6.60;3.87;;;;;;;;;;5043659;28;20559;-83
2022/03/11 00:40:42;;;;;;;4.80;3.60;;;;;;;;;;5043493;28;20591;-83
2022/03/11 00:43:48;;;;;;;5.47;3.40;;;;;;;;;;5043268;28;20625;-83
2022/03/11 00:46:52;;;;;;;5.63;3.70;;;;;;;;;;5043422;28;20555;-83
2022/03/11 00:49:56;;;;;;;8.10;4.03;;;;;;;;;;5043576;28;20867;-83
2022/03/11 00:53:02;;;;;;;6.97;4.17;;;;;;;;;;5042911;28;21005;-83
2022/03/11 00:56:06;;;;;;;10.13;3.90;;;;;;;;;;5043287;28;20535;-83
2022/03/11 00:59:11;;;;;;;9.23;3.83;;;;;;;;;;5043295;28;20555;-83
2022/03/11 01:02:16;;;;;;;7.60;4.27;;;;;;;;;;5043334;28;20626;-83
2022/03/11 01:05:23;;;;;;;11.83;4.33;;;;;;;;;;5043609;28;20540;-83
2022/03/11 01:08:28;;;;;;;6.30;3.87;;;;;;;;;;5043194;28;20531;-83
2022/03/11 01:11:32;;;;;;;9.00;4.40;;;;;;;;;;5054247;28;20535;-83
2022/03/11 01:14:36;;;;;;;7.07;3.90;;;;;;;;;;5043017;28;20543;-83
2022/03/11 01:17:40;;;;;;;7.53;4.23;;;;;;;;;;5043141;28;21084;-82
2022/03/11 01:20:45;;;;;;;8.83;4.20;;;;;;;;;;5042741;28;21172;-83
2022/03/11 01:23:50;;;;;;;9.20;4.20;;;;;;;;;;5043204;28;21191;-84
2022/03/11 01:26:53;;;;;;;7.40;4.40;;;;;;;;;;5043117;28;20535;-84
2022/03/11 01:29:59;;;;;;;9.47;4.27;;;;;;;;;;5042696;28;20954;-84
2022/03/11 01:33:03;;;;;;;6.97;4.57;;;;;;;;;;5042750;28;20629;-84
2022/03/11 01:36:08;;;;;;;9.83;4.30;;;;;;;;;;5031145;28;20555;-84
2022/03/11 01:39:13;;;;;;;7.40;4.13;;;;;;;;;;5042574;28;20547;-84
2022/03/11 01:42:16;;;;;;;9.27;4.27;;;;;;;;;;5054110;28;20630;-84
2022/03/11 01:45:20;;;;;;;7.87;3.93;;;;;;;;;;5042373;28;20598;-84
2022/03/11 01:48:25;;;;;;;6.03;3.33;;;;;;;;;;5042196;28;20938;-84
2022/03/11 01:51:31;;;;;;;9.90;4.73;;;;;;;;;;5042572;28;20611;-84
2022/03/11 01:54:35;;;;;;;8.77;4.00;;;;;;;;;;5042773;28;20543;-85
2022/03/11 01:57:39;;;;;;;7.80;4.20;;;;;;;;;;5031514;28;20538;-85
2022/03/11 02:00:43;;;;;;;8.87;4.20;;;;;;;;;;5053946;28;20547;-85
2022/03/11 02:03:47;;;;;;;7.17;4.40;;;;;;;;;;5041856;28;20613;-85
2022/03/11 02:06:53;;;;;;;10.93;3.90;;;;;;;;;;5042569;28;20538;-85
2022/03/11 02:09:57;;;;;;;9.17;4.57;;;;;;;;;;5043133;28;21147;-85
2022/03/11 02:13:05;;;;;;;5.93;3.83;;;;;;;;;;5043070;28;20625;-85
2022/03/11 02:16:14;;;;;;;6.53;4.20;;;;;;;;;;5043067;28;20594;-85
2022/03/11 02:19:18;;;;;;;8.40;4.60;;;;;;;;;;5042861;28;20535;-85
2022/03/11 02:22:24;;;;;;;7.13;4.03;;;;;;;;;;5042118;28;20614;-85
2022/03/11 02:25:28;;;;;;;9.40;4.10;;;;;;;;;;5042911;28;20875;-85
2022/03/11 02:28:33;;;;;;;6.97;4.10;;;;;;;;;;5042394;28;20539;-85
2022/03/11 02:31:37;;;;;;;7.70;4.23;;;;;;;;;;5042161;28;20591;-85
2022/03/11 02:34:41;;;;;;;6.73;4.13;;;;;;;;;;5042460;28;20539;-85
2022/03/11 02:37:45;;;;;;;7.23;4.10;;;;;;;;;;5042238;28;20539;-85
2022/03/11 02:40:49;;;;;;;12.67;4.33;;;;;;;;;;5042430;28;20539;-85
2022/03/11 02:43:54;;;;;;;7.70;4.00;;;;;;;;;;5042191;28;20558;-85
2022/03/11 02:46:59;;;;;;;6.17;4.27;;;;;;;;;;5053813;28;20879;-85
2022/03/11 02:50:05;;;;;;;7.57;4.43;;;;;;;;;;5042615;28;20595;-85
2022/03/11 02:53:10;;;;;;;7.17;4.20;;;;;;;;;;5030675;28;20633;-85
2022/03/11 02:56:15;;;;;;;7.93;4.47;;;;;;;;;;5042314;28;20599;-85
2022/03/11 02:59:19;;;;;;;6.63;4.23;;;;;;;;;;5041919;28;20942;-85
2022/03/11 03:02:23;;;;;;;8.67;4.67;;;;;;;;;;5031233;28;20961;-85
2022/03/11 03:05:28;;;;;;;7.67;3.93;;;;;;;;;;5042990;28;20547;-85
2022/03/11 03:08:34;;;;;;;9.90;4.70;;;;;;;;;;5044260;28;20535;-85
2022/03/11 03:11:38;;;;;;;8.40;4.33;;;;;;;;;;5043278;28;20594;-85
2022/03/11 03:14:42;;;;;;;10.57;4.07;;;;;;;;;;5044952;28;20554;-85
2022/03/11 03:17:46;;;;;;;6.53;4.33;;;;;;;;;;5047007;28;20617;-85
2022/03/11 03:20:50;;;;;;;7.97;4.30;;;;;;;;;;5046814;28;20590;-85
2022/03/11 03:23:54;;;;;;;7.80;4.37;;;;;;;;;;5047304;28;20606;-85
2022/03/11 03:26:58;;;;;;;7.87;4.33;;;;;;;;;;5047003;28;20598;-85
2022/03/11 03:30:06;;;;;;;10.00;4.37;;;;;;;;;;5057411;28;20595;-84
2022/03/11 03:33:10;;;;;;;7.30;4.73;;;;;;;;;;5044833;28;20638;-84
2022/03/11 03:36:15;;;;;;;9.00;4.60;;;;;;;;;;5033684;28;20598;-84
2022/03/11 03:39:19;;;;;;;8.33;4.63;;;;;;;;;;5033668;28;20606;-84
2022/03/11 03:42:26;;;;;;;10.57;4.77;;;;;;;;;;5044720;28;20610;-84
2022/03/11 03:45:31;;;;;;;12.40;5.10;;;;;;;;;;5044639;28;20638;-84
2022/03/11 03:48:34;;;;;;;6.80;4.70;;;;;;;;;;5045524;28;20543;-84
2022/03/11 03:51:39;;;;;;;11.03;4.80;;;;;;;;;;5044963;28;20642;-84
2022/03/11 03:54:44;;;;;;;13.03;5.33;;;;;;;;;;5045916;28;20542;-84
2022/03/11 03:57:48;;;;;;;9.03;5.23;;;;;;;;;;5045532;28;20601;-83
2022/03/11 04:00:54;;;;;;;13.83;5.13;;;;;;;;;;5057068;28;20554;-83
2022/03/11 04:03:58;;;;;;;7.37;4.43;;;;;;;;;;5045512;28;20553;-83
2022/03/11 04:07:02;;;;;;;10.00;5.37;;;;;;;;;;5056960;28;20547;-84
2022/03/11 04:10:07;;;;;;;10.80;5.07;;;;;;;;;;5056997;28;20562;-83
2022/03/11 04:13:11;;;;;;;9.63;5.07;;;;;;;;;;5045433;28;20657;-83
2022/03/11 04:16:15;;;;;;;8.40;5.10;;;;;;;;;;5044684;28;20547;-83
2022/03/11 04:19:19;;;;;;;11.93;5.27;;;;;;;;;;5045058;28;20543;-83
2022/03/11 04:22:23;;;;;;;10.90;5.00;;;;;;;;;;5044792;28;20621;-83
2022/03/11 04:25:27;;;;;;;11.60;5.73;;;;;;;;;;5056479;28;20539;-83
2022/03/11 04:28:31;;;;;;;8.30;5.00;;;;;;;;;;5055678;28;20536;-83
2022/03/11 04:31:36;;;;;;;10.33;5.17;;;;;;;;;;5044598;28;20594;-83
2022/03/11 04:34:40;;;;;;;14.57;5.00;;;;;;;;;;5044704;28;20551;-84
2022/03/11 04:37:44;;;;;;;9.17;5.37;;;;;;;;;;5044106;28;21128;-83
2022/03/11 04:40:48;;;;;;;8.57;5.50;;;;;;;;;;5034496;28;20539;-82
2022/03/11 04:43:53;;;;;;;9.07;4.87;;;;;;;;;;5046301;28;20614;-83
2022/03/11 04:46:57;;;;;;;9.93;5.57;;;;;;;;;;5033167;28;20539;-83
2022/03/11 04:50:02;;;;;;;11.10;5.27;;;;;;;;;;5033694;28;20539;-83
2022/03/11 04:53:06;;;;;;;9.80;5.60;;;;;;;;;;5044716;28;20637;-83
2022/03/11 04:56:10;;;;;;;9.50;5.70;;;;;;;;;;5056355;28;20598;-83
2022/03/11 04:59:14;;;;;;;10.03;5.50;;;;;;;;;;5055687;28;20595;-83
2022/03/11 05:02:28;;;;;;;10.57;5.67;;;;;;;;;;5046466;28;20626;-83
2022/03/11 05:05:32;;;;;;;26.47;6.27;;;;;;;;;;5059127;28;20556;-84
2022/03/11 05:08:37;;;;;;;9.20;5.27;;;;;;;;;;5045942;28;20550;-84
2022/03/11 05:11:41;;;;;;;10.70;5.33;;;;;;;;;;5045962;28;20598;-84
2022/03/11 05:14:45;;;;;;;9.13;5.77;;;;;;;;;;5057732;28;20542;-83
2022/03/11 05:17:49;;;;;;;9.43;5.43;;;;;;;;;;5047146;28;20879;-84
2022/03/11 05:20:53;;;;;;;10.03;5.77;;;;;;;;;;5034312;28;20586;-84
2022/03/11 05:23:58;;;;;;;13.43;5.70;;;;;;;;;;5046173;28;21190;-83
2022/03/11 05:27:02;;;;;;;10.23;6.07;;;;;;;;;;5047319;28;20609;-83
2022/03/11 05:30:08;;;;;;;9.80;5.53;;;;;;;;;;5046899;28;20603;-83
2022/03/11 05:33:12;;;;;;;9.10;5.67;;;;;;;;;;5046407;28;20614;-84
2022/03/11 05:36:17;;;;;;;12.57;6.30;;;;;;;;;;5046059;28;21140;-84
2022/03/11 05:39:21;;;;;;;10.97;5.80;;;;;;;;;;5043913;28;20613;-84
2022/03/11 05:42:25;;;;;;;10.97;5.87;;;;;;;;;;5042585;28;20624;-83
2022/03/11 05:45:31;;;;;;;9.10;5.77;;;;;;;;;;5046556;28;20628;-84
2022/03/11 05:48:35;;;;;;;12.00;6.70;;;;;;;;;;5044590;28;20535;-84
2022/03/11 05:51:39;;;;;;;11.93;6.17;;;;;;;;;;5045467;28;20682;-84
2022/03/11 05:54:43;;;;;;;9.63;6.30;;;;;;;;;;5046771;28;20554;-83
2022/03/11 05:57:47;;;;;;;10.83;6.07;;;;;;;;;;5043850;28;20539;-83
2022/03/11 06:00:51;;;;;;;12.43;6.40;;;;;;;;;;5042631;28;20536;-82
2022/03/11 06:03:55;;;;;;;9.70;5.87;;;;;;;;;;5043926;28;20538;-84
2022/03/11 06:06:59;;;;;;;10.97;6.07;;;;;;;;;;5057802;28;20546;-85
2022/03/11 06:10:04;;;;;;;11.07;6.57;;;;;;;;;;5045995;28;20551;-85
2022/03/11 06:13:08;;;;;;;11.03;6.10;;;;;;;;;;5042200;28;20697;-85
2022/03/11 06:16:13;;;;;;;13.30;6.20;;;;;;;;;;5042033;28;20546;-84
2022/03/11 06:19:17;;;;;;;14.00;6.37;;;;;;;;;;5042982;28;20546;-85
2022/03/11 06:22:21;;;;;;;13.87;6.60;;;;;;;;;;5043424;28;20637;-85
2022/03/11 06:25:26;;;;;;;14.93;6.07;;;;;;;;;;5053146;28;20609;-83
2022/03/11 06:28:30;;;;;;;9.63;5.87;;;;;;;;;;5041585;28;20656;-83
2022/03/11 06:31:34;;;;;;;11.57;6.70;;;;;;;;;;5031384;28;20615;-84
2022/03/11 06:34:38;;;;;;;11.40;6.60;;;;;;;;;;5031585;28;20546;-84
2022/03/11 06:37:44;;;;;;;10.73;6.63;;;;;;;;;;5042534;28;20555;-84
2022/03/11 06:40:49;;;;;;;10.47;5.47;;;;;;;;;;5054381;28;20539;-84
2022/03/11 06:43:54;;;;;;;11.27;6.23;;;;;;;;;;5043924;28;20598;-84
2022/03/11 06:46:58;;;;;;;10.63;6.70;;;;;;;;;;5043898;28;21085;-84
2022/03/11 06:50:04;;;;;;;15.23;6.50;;;;;;;;;;5043742;28;20543;-85
2022/03/11 06:53:14;;;;;;;15.43;6.73;;;;;;;;;;5010802;23;20774;-88
2022/03/11 07:01:35;;;;;;;16.70;8.73;;;;;;;;;;4941165;29;20548;-87
2022/03/11 07:04:39;;;;;;;11.03;7.10;;;;;;;;;;4943751;29;20552;-87
2022/03/11 07:07:45;;;;;;;12.07;7.00;;;;;;;;;;4930170;29;20915;-86
2022/03/11 07:10:50;;;;;;;10.20;6.93;;;;;;;;;;4941547;29;20540;-87
2022/03/11 07:13:54;;;;;;;24.50;12.10;;;;;;;;;;4951691;28;20627;-88
2022/03/11 07:17:11;;;;;;;19.20;9.03;;;;;;;;;;4940829;29;20544;-88
2022/03/11 07:20:49;;;;;;;20.43;10.53;;;;;;;;;;4940743;29;20548;-87
2022/03/11 07:28:53;;;;;;;14.63;8.23;;;;;;;;;;4952685;29;20970;-88
2022/03/11 07:37:12;;;;;;;14.87;7.37;;;;;;;;;;4957723;29;21139;-88
2022/03/11 07:40:16;;;;;;;12.63;7.40;;;;;;;;;;4941318;29;20547;-87
2022/03/11 07:48:18;;;;;;;15.13;8.40;;;;;;;;;;4941654;29;20540;-88
2022/03/11 07:51:25;;;;;;;11.60;6.57;;;;;;;;;;4940349;29;20600;-87
2022/03/11 07:54:57;;;;;;;11.83;7.63;;;;;;;;;;4962598;28;20618;-87
2022/03/11 07:58:03;;;;;;;12.37;7.33;;;;;;;;;;4954081;29;20544;-86
2022/03/11 08:01:08;;;;;;;14.50;8.50;;;;;;;;;;4941195;28;20540;-86
2022/03/11 08:04:40;;;;;;;11.43;6.73;;;;;;;;;;4945449;29;20619;-88
2022/03/11 08:08:28;;;;;;;12.93;7.50;;;;;;;;;;4955904;29;20904;-87
2022/03/11 08:11:33;;;;;;;11.10;7.33;;;;;;;;;;4944058;29;20603;-86
2022/03/11 08:14:43;;;;;;;11.50;7.10;;;;;;;;;;4954066;29;20614;-88
2022/03/11 08:18:14;;;;;;;12.27;7.33;;;;;;;;;;4943304;29;20548;-88
2022/03/11 08:21:33;;;;;;;11.70;8.03;;;;;;;;;;4932351;29;20552;-88
2022/03/11 08:24:38;;;;;;;12.83;7.20;;;;;;;;;;4945784;29;20606;-88
2022/03/11 08:27:47;;;;;;;11.80;7.67;;;;;;;;;;4954173;29;20540;-87
2022/03/11 08:31:00;;;;;;;12.77;7.37;;;;;;;;;;4931931;29;20556;-88
2022/03/11 08:34:29;;;;;;;13.13;7.70;;;;;;;;;;4954220;28;20619;-87
2022/03/11 08:38:11;;;;;;;15.60;8.47;;;;;;;;;;4932857;29;20559;-87
2022/03/11 08:41:43;;;;;;;12.50;7.60;;;;;;;;;;4944916;29;20540;-88
2022/03/11 08:44:55;;;;;;;14.57;7.60;;;;;;;;;;4954280;29;20548;-87
2022/03/11 08:48:53;;;;;;;12.17;7.37;;;;;;;;;;4949218;29;20557;-87
2022/03/11 08:52:01;;;;;;;13.17;7.77;;;;;;;;;;4943980;28;20216;-88
2022/03/11 08:55:06;;;;;;;11.97;7.60;;;;;;;;;;4921891;29;20615;-85
2022/03/11 09:02:48;;;;;;;13.73;7.80;;;;;;;;;;4953465;28;20627;-87
2022/03/11 09:06:17;;;;;;;15.63;7.87;;;;;;;;;;4942512;29;20188;-88
2022/03/11 09:09:53;;;;;;;14.33;8.27;;;;;;;;;;4942609;29;20187;-88
2022/03/11 09:13:22;;;;;;;10.60;7.03;;;;;;;;;;4931256;29;20235;-88
2022/03/11 09:20:50;;;;;;;13.20;8.13;;;;;;;;;;4961033;28;20196;-88
2022/03/11 09:23:54;;;;;;;15.13;7.97;;;;;;;;;;4942810;29;20219;-88
2022/03/11 09:26:58;;;;;;;12.60;7.70;;;;;;;;;;4932175;29;20183;-86
2022/03/11 09:30:05;;;;;;;12.77;7.60;;;;;;;;;;4931985;29;20635;-87
2022/03/11 09:33:09;;;;;;;10.43;7.93;;;;;;;;;;4942234;29;20231;-86
2022/03/11 09:37:03;;;;;;;13.43;8.00;;;;;;;;;;4944054;29;20658;-87
2022/03/11 09:40:15;;;;;;;12.77;8.50;;;;;;;;;;4943959;29;20622;-87
2022/03/11 09:43:19;;;;;;;13.77;8.07;;;;;;;;;;4932162;29;20215;-86
2022/03/11 09:46:25;;;;;;;11.00;7.27;;;;;;;;;;4931912;29;20187;-88
2022/03/11 09:49:33;;;;;;;12.83;7.70;;;;;;;;;;4942601;29;20666;-86
2022/03/11 09:52:38;;;;;;;13.83;7.70;;;;;;;;;;4933141;28;20733;-86
2022/03/11 09:55:46;;;;;;;102.03;12.00;;;;;;;;;;4966292;28;20215;-85
2022/03/11 09:58:59;;;;;;;11.87;7.33;;;;;;;;;;4945167;29;20202;-87
2022/03/11 10:02:28;;;;;;;10.53;7.23;;;;;;;;;;4930892;28;20195;-88
2022/03/11 10:06:02;;;;;;;15.73;8.17;;;;;;;;;;4932470;29;20583;-87
2022/03/11 10:09:19;;;;;;;14.17;7.60;;;;;;;;;;4922951;29;20658;-87
2022/03/11 10:12:43;;;;;;;13.83;8.13;;;;;;;;;;4932570;28;20227;-87
2022/03/11 10:15:47;;;;;;;14.80;7.67;;;;;;;;;;4930794;29;20184;-87
2022/03/11 10:19:19;;;;;;;12.10;6.87;;;;;;;;;;4942958;29;20188;-86
2022/03/11 10:22:34;;;;;;;11.27;6.80;;;;;;;;;;4966268;28;20697;-86
2022/03/11 10:26:09;;;;;;;12.77;6.87;;;;;;;;;;4941788;29;20532;-86
2022/03/11 10:30:10;;;;;;;12.67;7.87;;;;;;;;;;4939315;28;20532;-88
2022/03/11 10:33:14;;;;;;;11.50;7.70;;;;;;;;;;4940992;29;20238;-88
2022/03/11 10:36:28;;;;;;;9.80;7.30;;;;;;;;;;4952381;28;20184;-88
2022/03/11 10:40:22;;;;;;;11.40;7.50;;;;;;;;;;4943120;29;20526;-86
2022/03/11 10:43:43;;;;;;;14.10;8.40;;;;;;;;;;4952023;28;20720;-86
2022/03/11 10:47:19;;;;;;;10.10;7.40;;;;;;;;;;4942235;29;20197;-86
2022/03/11 10:50:49;;;;;;;13.97;7.47;;;;;;;;;;4964051;28;20187;-87
2022/03/11 10:53:55;;;;;;;10.27;7.30;;;;;;;;;;4930124;29;20242;-88
2022/03/11 11:01:10;;;;;;;17.20;8.33;;;;;;;;;;4953599;29;20211;-86
2022/03/11 11:04:35;;;;;;;11.97;7.70;;;;;;;;;;4941774;29;20228;-88
2022/03/11 11:08:38;;;;;;;12.73;7.63;;;;;;;;;;4951663;29;20191;-88
2022/03/11 11:13:17;;;;;;;15.07;7.30;;;;;;;;;;4941067;28;20223;-88
2022/03/11 11:16:56;;;;;;;11.33;7.07;;;;;;;;;;4951541;29;20211;-87
2022/03/11 11:20:04;;;;;;;11.30;7.37;;;;;;;;;;4986859;28;20522;-87
2022/03/11 11:23:19;;;;;;;22.10;8.07;;;;;;;;;;4941459;29;20582;-86
2022/03/11 11:26:44;;;;;;;10.57;7.33;;;;;;;;;;4954509;29;20188;-86
2022/03/11 11:30:21;;;;;;;11.13;7.10;;;;;;;;;;4963714;28;20184;-88
2022/03/11 11:33:26;;;;;;;11.57;7.00;;;;;;;;;;4941531;29;20223;-88
2022/03/11 11:36:36;;;;;;;11.60;7.67;;;;;;;;;;4943211;29;20187;-87
2022/03/11 11:39:42;;;;;;;11.57;7.93;;;;;;;;;;4933055;29;20184;-88
2022/03/11 11:43:14;;;;;;;10.83;7.30;;;;;;;;;;4955589;28;20207;-88
2022/03/11 11:51:08;;;;;;;17.57;8.33;;;;;;;;;;4945696;29;20547;-88
2022/03/11 12:08:37;;;;;;;9.10;6.43;;;;;;;;;;4968166;28;20566;-88
2022/03/11 12:12:05;;;;;;;9.73;6.80;;;;;;;;;;4943704;29;20176;-88
2022/03/11 12:15:11;;;;;;;13.17;7.57;;;;;;;;;;4943631;29;20176;-87
2022/03/11 12:19:28;;;;;;;11.03;7.47;;;;;;;;;;4956759;29;20199;-86
2022/03/11 12:23:28;;;;;;;10.90;7.43;;;;;;;;;;4943070;28;20220;-88
2022/03/11 12:31:57;;;;;;;9.80;7.13;;;;;;;;;;4958255;28;20189;-88
2022/03/11 12:35:05;;;;;;;10.17;7.93;;;;;;;;;;4933846;29;20626;-88
2022/03/11 12:38:15;;;;;;;12.33;7.63;;;;;;;;;;4943457;29;20539;-88
2022/03/11 12:41:32;;;;;;;12.83;7.87;;;;;;;;;;4942776;29;20558;-88
2022/03/11 12:44:54;;;;;;;12.10;7.43;;;;;;;;;;4944633;29;20180;-87
2022/03/11 12:48:04;;;;;;;12.87;7.70;;;;;;;;;;4965335;28;20254;-86
2022/03/11 12:51:45;;;;;;;8.93;6.47;;;;;;;;;;4955309;29;20188;-86
2022/03/11 12:54:51;;;;;;;12.53;7.20;;;;;;;;;;4932731;29;20203;-87
2022/03/11 12:57:59;;;;;;;13.10;7.43;;;;;;;;;;4934943;29;20651;-87
2022/03/11 13:01:07;;;;;;;10.07;7.17;;;;;;;;;;4949867;29;20180;-86
2022/03/11 13:04:12;;;;;;;12.97;7.53;;;;;;;;;;4959677;28;20231;-88
2022/03/11 13:07:17;;;;;;;11.40;7.93;;;;;;;;;;4942376;29;20598;-88
2022/03/11 13:10:24;;;;;;;14.10;7.80;;;;;;;;;;4942705;29;20682;-87
2022/03/11 13:13:29;;;;;;;17.33;8.33;;;;;;;;;;4965664;28;20582;-86
2022/03/11 13:16:34;;;;;;;12.80;7.43;;;;;;;;;;4942440;29;20278;-87
2022/03/11 13:20:00;;;;;;;13.50;7.93;;;;;;;;;;4942404;29;20188;-88
2022/03/11 13:23:31;;;;;;;10.23;6.43;;;;;;;;;;4942605;29;20242;-87
2022/03/11 13:26:36;;;;;;;10.93;6.80;;;;;;;;;;4953971;29;20199;-88
2022/03/11 13:29:41;;;;;;;10.83;6.90;;;;;;;;;;4942192;29;20179;-88
2022/03/11 13:32:46;;;;;;;9.20;6.73;;;;;;;;;;4942153;28;20241;-88
2022/03/11 13:36:25;;;;;;;10.23;7.10;;;;;;;;;;4931475;29;20187;-88
2022/03/11 13:40:09;;;;;;;10.70;6.57;;;;;;;;;;4962484;28;20192;-88
2022/03/11 13:43:20;;;;;;;13.07;6.80;;;;;;;;;;4942173;29;20212;-88
2022/03/11 13:46:30;;;;;;;9.13;6.60;;;;;;;;;;4930956;29;20195;-88
2022/03/11 13:50:28;;;;;;;9.40;6.13;;;;;;;;;;4965513;28;20192;-88
2022/03/11 13:54:00;;;;;;;9.37;6.43;;;;;;;;;;4945093;29;20219;-87
2022/03/11 14:01:14;;;;;;;15.10;6.77;;;;;;;;;;4947392;28;20191;-87
2022/03/11 14:04:21;;;;;;;7.67;6.10;;;;;;;;;;4953160;29;20195;-86
2022/03/11 14:07:30;;;;;;;17.40;7.20;;;;;;;;;;4931810;29;20184;-88
2022/03/11 14:10:41;;;;;;;15.43;6.63;;;;;;;;;;4963971;28;20184;-88
2022/03/11 14:14:26;;;;;;;8.70;6.63;;;;;;;;;;4932887;29;20230;-87
2022/03/11 14:17:45;;;;;;;11.17;5.77;;;;;;;;;;4941643;29;20183;-87
2022/03/11 14:20:50;;;;;;;17.50;6.37;;;;;;;;;;4941529;29;20192;-88
2022/03/11 14:24:01;;;;;;;8.47;5.73;;;;;;;;;;4941663;29;20224;-88
2022/03/11 14:27:38;;;;;;;11.27;5.90;;;;;;;;;;4924927;29;20195;-86
2022/03/11 14:30:47;;;;;;;10.60;6.00;;;;;;;;;;4947133;28;20680;-88
2022/03/11 14:41:26;;;;;;;9.83;5.57;;;;;;;;;;4946172;29;20199;-87
2022/03/11 14:44:38;;;;;;;8.07;5.90;;;;;;;;;;4951786;29;20523;-88
2022/03/11 14:47:50;;;;;;;29.73;6.03;;;;;;;;;;4941501;29;20183;-88
2022/03/11 14:51:26;;;;;;;9.97;5.67;;;;;;;;;;4933613;29;20188;-86
2022/03/11 14:54:37;;;;;;;9.47;4.90;;;;;;;;;;4941445;29;20218;-88
2022/03/11 14:58:00;;;;;;;7.77;4.93;;;;;;;;;;4952132;29;20188;-87
2022/03/11 15:01:04;;;;;;;6.07;4.50;;;;;;;;;;4951786;29;20199;-88
2022/03/11 15:04:27;;;;;;;7.90;4.10;;;;;;;;;;4941334;29;20211;-86
2022/03/11 15:07:56;;;;;;;10.50;4.77;;;;;;;;;;4941696;29;20192;-88
2022/03/11 15:11:53;;;;;;;5.93;4.53;;;;;;;;;;4954959;28;20195;-87
2022/03/11 15:14:57;;;;;;;7.40;4.00;;;;;;;;;;4955721;29;20203;-87
2022/03/11 15:18:08;;;;;;;8.50;4.23;;;;;;;;;;4943933;29;20199;-88
2022/03/11 15:21:13;;;;;;;8.17;4.00;;;;;;;;;;4956419;29;20184;-86
2022/03/11 15:24:20;;;;;;;6.20;4.20;;;;;;;;;;4945074;29;20176;-87
2022/03/11 15:27:24;;;;;;;9.43;4.30;;;;;;;;;;4944565;29;20183;-87
2022/03/11 15:30:28;;;;;;;7.57;4.07;;;;;;;;;;4955225;29;20184;-87
2022/03/11 15:33:34;;;;;;;7.40;4.43;;;;;;;;;;4955027;28;20227;-88
2022/03/11 15:36:38;;;;;;;7.93;4.23;;;;;;;;;;4945763;29;20558;-86
2022/03/11 15:39:42;;;;;;;5.30;3.70;;;;;;;;;;4934957;29;20179;-86
2022/03/11 15:43:14;;;;;;;7.67;4.00;;;;;;;;;;4946377;28;20218;-86
2022/03/11 15:46:19;;;;;;;10.83;3.77;;;;;;;;;;4935350;29;20188;-86
2022/03/11 15:49:23;;;;;;;6.53;3.97;;;;;;;;;;4946482;29;20516;-87
2022/03/11 15:56:29;;;;;;;9.53;3.97;;;;;;;;;;4943215;29;20564;-88
2022/03/11 15:59:39;;;;;;;7.10;3.83;;;;;;;;;;4943426;29;20203;-87
2022/03/11 16:03:20;;;;;;;12.53;4.20;;;;;;;;;;4954811;28;20219;-87
2022/03/11 16:06:24;;;;;;;6.63;4.00;;;;;;;;;;5003183;28;20176;-86
2022/03/11 16:09:28;;;;;;;7.77;4.00;;;;;;;;;;4955700;29;20184;-87
2022/03/11 16:12:34;;;;;;;6.20;3.80;;;;;;;;;;4966152;28;20218;-87
2022/03/11 16:15:40;;;;;;;5.87;3.50;;;;;;;;;;4942918;29;20223;-87
2022/03/11 16:18:48;;;;;;;12.60;3.97;;;;;;;;;;4944282;28;20184;-86
2022/03/11 16:21:52;;;;;;;8.23;4.27;;;;;;;;;;4943458;28;20660;-86
2022/03/11 16:24:57;;;;;;;10.37;4.30;;;;;;;;;;4943870;29;20188;-88
2022/03/11 16:28:01;;;;;;;8.53;3.97;;;;;;;;;;4954735;29;20199;-86
2022/03/11 16:31:05;;;;;;;7.03;4.10;;;;;;;;;;4943640;29;20662;-88
2022/03/11 16:38:17;;;;;;;9.87;5.10;;;;;;;;;;4954416;29;20192;-87
2022/03/11 16:41:29;;;;;;;5.93;4.33;;;;;;;;;;4932260;29;20179;-88
2022/03/11 16:45:23;;;;;;;5.67;4.63;;;;;;;;;;4953920;29;20172;-88
2022/03/11 16:48:27;;;;;;;7.47;4.70;;;;;;;;;;4943674;29;20180;-87
2022/03/11 16:51:31;;;;;;;10.37;4.77;;;;;;;;;;4933634;29;20183;-87
2022/03/11 16:54:36;;;;;;;6.07;4.33;;;;;;;;;;4943010;29;20211;-87
2022/03/11 16:57:43;;;;;;;11.50;5.37;;;;;;;;;;4942741;29;20184;-88
2022/03/11 17:01:19;;;;;;;7.43;5.10;;;;;;;;;;4942559;29;20526;-87
2022/03/11 17:05:24;;;;;;;6.63;4.50;;;;;;;;;;4940919;28;20176;-87
2022/03/11 17:08:38;;;;;;;7.23;4.90;;;;;;;;;;4944034;29;20179;-88
2022/03/11 17:11:53;;;;;;;11.67;5.53;;;;;;;;;;4931882;29;20188;-88
2022/03/11 17:15:22;;;;;;;8.83;5.13;;;;;;;;;;4964284;28;20211;-88
2022/03/11 17:19:16;;;;;;;9.93;5.40;;;;;;;;;;4931706;29;20184;-88
2022/03/11 17:22:26;;;;;;;9.67;5.03;;;;;;;;;;4942264;28;20259;-88
2022/03/11 17:25:52;;;;;;;11.13;6.10;;;;;;;;;;4942166;29;20192;-88
2022/03/11 17:29:41;;;;;;;21.03;10.23;;;;;;;;;;4931673;29;20184;-88
2022/03/11 17:33:44;;;;;;;12.57;6.83;;;;;;;;;;4953291;28;20219;-87
2022/03/11 17:42:39;;;;;;;8.83;5.10;;;;;;;;;;4953488;28;20219;-88
2022/03/11 17:46:14;;;;;;;10.50;5.13;;;;;;;;;;4993350;28;20696;-88
2022/03/11 17:49:44;;;;;;;10.57;4.63;;;;;;;;;;4993222;28;20198;-88
2022/03/11 17:53:18;;;;;;;6.50;4.47;;;;;;;;;;4993134;28;20218;-88
2022/03/11 17:56:59;;;;;;;8.43;5.20;;;;;;;;;;5001001;28;20202;-88
2022/03/11 18:05:48;;;;;;;7.83;4.50;;;;;;;;;;4993919;28;20174;-88
2022/03/11 18:09:42;;;;;;;6.87;4.73;;;;;;;;;;4992848;28;20194;-88
2022/03/11 18:13:19;;;;;;;7.17;3.87;;;;;;;;;;4992871;28;20782;-88
2022/03/11 18:25:54;;;;;;;9.50;4.10;;;;;;;;;;4902416;29;20613;-88
2022/03/11 18:29:36;;;;;;;7.30;3.70;;;;;;;;;;4926355;29;20611;-88
2022/03/11 18:33:31;;;;;;;7.57;4.53;;;;;;;;;;4952481;28;20635;-88
2022/03/11 18:37:44;;;;;;;7.17;4.30;;;;;;;;;;4953108;29;20552;-87
2022/03/11 18:42:28;;;;;;;6.17;4.20;;;;;;;;;;4958875;28;20556;-88
2022/03/11 18:46:38;;;;;;;7.87;4.47;;;;;;;;;;4940275;29;20536;-88
2022/03/11 18:51:15;;;;;;;6.90;3.87;;;;;;;;;;4970780;28;21133;-88
2022/03/11 19:03:00;;;;;;;7.07;4.60;;;;;;;;;;4953014;28;20623;-87
2022/03/11 19:06:47;;;;;;;8.50;4.30;;;;;;;;;;4940652;29;20626;-87
2022/03/11 19:10:01;;;;;;;11.53;5.13;;;;;;;;;;4919321;29;21074;-86
2022/03/11 19:13:30;;;;;;;9.73;4.97;;;;;;;;;;4962878;28;20639;-87
2022/03/11 19:16:40;;;;;;;9.83;4.40;;;;;;;;;;4951829;29;20540;-87
2022/03/11 19:20:15;;;;;;;6.47;4.03;;;;;;;;;;4963086;28;20607;-87
2022/03/11 19:24:14;;;;;;;6.90;3.80;;;;;;;;;;4929700;29;20615;-87
2022/03/11 19:28:07;;;;;;;8.00;4.23;;;;;;;;;;4941613;29;21173;-87
2022/03/11 19:31:42;;;;;;;6.70;4.43;;;;;;;;;;4929735;29;20560;-87
2022/03/11 19:35:56;;;;;;;7.50;4.37;;;;;;;;;;4918995;29;20675;-87
2022/03/11 19:39:50;;;;;;;7.33;4.43;;;;;;;;;;4940609;29;21074;-87
2022/03/11 19:44:25;;;;;;;7.53;4.33;;;;;;;;;;4952373;28;20658;-87
2022/03/11 19:53:14;;;;;;;7.03;4.67;;;;;;;;;;4954543;28;20648;-86
2022/03/11 19:57:07;;;;;;;7.07;4.43;;;;;;;;;;4946525;28;20646;-87
2022/03/11 20:00:52;;;;;;;7.17;4.23;;;;;;;;;;4943575;29;20556;-88
2022/03/11 20:04:14;;;;;;;9.37;3.93;;;;;;;;;;4973967;28;20647;-86
2022/03/11 20:07:50;;;;;;;7.00;4.53;;;;;;;;;;4956872;29;20560;-85
2022/03/11 20:11:08;;;;;;;8.87;4.73;;;;;;;;;;4956189;29;20555;-88
2022/03/11 20:14:13;;;;;;;6.20;4.10;;;;;;;;;;4958228;28;20618;-87
2022/03/11 20:17:17;;;;;;;11.00;4.57;;;;;;;;;;4934813;29;21149;-88
2022/03/11 20:20:22;;;;;;;7.07;4.13;;;;;;;;;;4946665;29;21078;-87
2022/03/11 20:23:27;;;;;;;7.47;4.20;;;;;;;;;;4935083;29;20966;-87
2022/03/11 20:27:23;;;;;;;7.13;3.90;;;;;;;;;;4936153;29;20532;-87
2022/03/11 20:34:47;;;;;;;9.20;4.70;;;;;;;;;;4919531;28;20621;-88
2022/03/11 20:37:54;;;;;;;9.50;4.67;;;;;;;;;;4905251;29;20565;-87
2022/03/11 20:40:59;;;;;;;7.30;4.50;;;;;;;;;;4926562;29;20954;-87
2022/03/11 20:44:06;;;;;;;7.23;4.40;;;;;;;;;;4932200;29;20615;-87
2022/03/11 20:47:11;;;;;;;6.77;4.20;;;;;;;;;;4945336;29;20888;-86
2022/03/11 20:50:54;;;;;;;8.73;4.63;;;;;;;;;;4954862;29;20610;-87
2022/03/11 20:54:30;;;;;;;8.33;4.70;;;;;;;;;;4943145;29;20963;-87
2022/03/11 20:58:09;;;;;;;7.33;4.40;;;;;;;;;;4954126;29;20618;-88
2022/03/11 21:01:23;;;;;;;6.83;3.90;;;;;;;;;;4931930;29;20540;-87
2022/03/11 21:04:40;;;;;;;5.97;3.93;;;;;;;;;;4944542;29;20552;-86
2022/03/11 21:07:44;;;;;;;9.03;4.93;;;;;;;;;;4956540;28;20914;-86
2022/03/11 21:11:16;;;;;;;7.13;4.50;;;;;;;;;;4932077;29;21090;-87
2022/03/11 21:15:53;;;;;;;8.17;4.60;;;;;;;;;;4960622;28;20651;-87
2022/03/11 21:19:41;;;;;;;8.90;4.67;;;;;;;;;;4965633;28;20892;-86